sensor_id;sensor_type;location;lat;lon;timestamp;P1;durP1;ratioP1;P2;durP2;ratioP2
53421;SDS011;39319;52.944;5.928;2022-10-20T00:02:25;12.13;;;5.60;;
53421;SDS011;39319;52.944;5.928;2022-10-20T00:04:51;14.48;;;5.45;;
53421;SDS011;39319;52.944;5.928;2022-10-20T00:07:17;11.07;;;5.40;;
53421;SDS011;39319;52.944;5.928;2022-10-20T00:09:43;10.47;;;5.30;;
53421;SDS011;39319;52.944;5.928;2022-10-20T00:12:09;15.80;;;5.78;;
53421;SDS011;39319;52.944;5.928;2022-10-20T00:14:34;14.57;;;5.83;;
53421;SDS011;39319;52.944;5.928;2022-10-20T00:17:00;12.25;;;5.43;;
53421;SDS011;39319;52.944;5.928;2022-10-20T00:19:27;12.30;;;5.38;;
53421;SDS011;39319;52.944;5.928;2022-10-20T00:21:53;11.95;;;5.40;;
53421;SDS011;39319;52.944;5.928;2022-10-20T00:24:19;14.02;;;5.75;;
53421;SDS011;39319;52.944;5.928;2022-10-20T00:26:45;18.23;;;6.30;;
53421;SDS011;39319;52.944;5.928;2022-10-20T00:29:11;11.65;;;5.63;;
53421;SDS011;39319;52.944;5.928;2022-10-20T00:31:37;10.70;;;5.38;;
53421;SDS011;39319;52.944;5.928;2022-10-20T00:34:03;10.32;;;5.28;;
53421;SDS011;39319;52.944;5.928;2022-10-20T00:36:29;10.10;;;5.80;;
53421;SDS011;39319;52.944;5.928;2022-10-20T00:38:58;10.15;;;5.30;;
53421;SDS011;39319;52.944;5.928;2022-10-20T00:41:25;10.85;;;5.13;;
53421;SDS011;39319;52.944;5.928;2022-10-20T00:43:58;14.95;;;6.05;;
53421;SDS011;39319;52.944;5.928;2022-10-20T00:46:30;10.52;;;5.40;;
53421;SDS011;39319;52.944;5.928;2022-10-20T00:51:44;13.03;;;5.57;;
53421;SDS011;39319;52.944;5.928;2022-10-20T00:54:13;11.93;;;5.60;;
53421;SDS011;39319;52.944;5.928;2022-10-20T00:56:42;13.60;;;5.93;;
53421;SDS011;39319;52.944;5.928;2022-10-20T00:59:11;13.20;;;6.00;;
53421;SDS011;39319;52.944;5.928;2022-10-20T01:01:40;12.07;;;5.45;;
53421;SDS011;39319;52.944;5.928;2022-10-20T01:04:07;13.40;;;5.95;;
53421;SDS011;39319;52.944;5.928;2022-10-20T01:06:33;18.23;;;6.03;;
53421;SDS011;39319;52.944;5.928;2022-10-20T01:08:59;12.27;;;5.93;;
53421;SDS011;39319;52.944;5.928;2022-10-20T01:14:37;12.75;;;5.82;;
53421;SDS011;39319;52.944;5.928;2022-10-20T01:19:58;11.23;;;5.60;;
53421;SDS011;39319;52.944;5.928;2022-10-20T01:28:11;12.20;;;5.95;;
53421;SDS011;39319;52.944;5.928;2022-10-20T01:30:45;12.80;;;6.03;;
53421;SDS011;39319;52.944;5.928;2022-10-20T01:33:21;11.65;;;5.63;;
53421;SDS011;39319;52.944;5.928;2022-10-20T01:36:11;12.18;;;5.80;;
53421;SDS011;39319;52.944;5.928;2022-10-20T01:38:49;13.87;;;5.93;;
53421;SDS011;39319;52.944;5.928;2022-10-20T01:41:25;13.57;;;6.00;;
53421;SDS011;39319;52.944;5.928;2022-10-20T01:43:57;13.63;;;6.20;;
53421;SDS011;39319;52.944;5.928;2022-10-20T01:46:27;14.02;;;6.00;;
53421;SDS011;39319;52.944;5.928;2022-10-20T01:48:53;11.97;;;6.20;;
53421;SDS011;39319;52.944;5.928;2022-10-20T01:51:23;13.10;;;6.07;;
53421;SDS011;39319;52.944;5.928;2022-10-20T01:53:48;12.20;;;6.17;;
53421;SDS011;39319;52.944;5.928;2022-10-20T01:56:18;12.55;;;5.97;;
53421;SDS011;39319;52.944;5.928;2022-10-20T01:59:04;12.30;;;5.78;;
53421;SDS011;39319;52.944;5.928;2022-10-20T02:04:34;12.65;;;6.00;;
53421;SDS011;39319;52.944;5.928;2022-10-20T02:07:17;12.73;;;5.80;;
53421;SDS011;39319;52.944;5.928;2022-10-20T02:09:52;13.48;;;5.60;;
53421;SDS011;39319;52.944;5.928;2022-10-20T02:12:27;12.70;;;5.88;;
53421;SDS011;39319;52.944;5.928;2022-10-20T02:14:56;11.98;;;5.65;;
53421;SDS011;39319;52.944;5.928;2022-10-20T02:17:23;10.57;;;5.88;;
53421;SDS011;39319;52.944;5.928;2022-10-20T02:19:51;13.45;;;6.47;;
53421;SDS011;39319;52.944;5.928;2022-10-20T02:22:17;11.98;;;5.72;;
53421;SDS011;39319;52.944;5.928;2022-10-20T02:24:45;13.43;;;5.70;;
53421;SDS011;39319;52.944;5.928;2022-10-20T02:27:15;13.77;;;5.97;;
53421;SDS011;39319;52.944;5.928;2022-10-20T02:29:52;12.52;;;5.97;;
53421;SDS011;39319;52.944;5.928;2022-10-20T02:32:25;12.15;;;6.05;;
53421;SDS011;39319;52.944;5.928;2022-10-20T02:34:52;12.30;;;6.10;;
53421;SDS011;39319;52.944;5.928;2022-10-20T02:37:18;12.73;;;6.30;;
53421;SDS011;39319;52.944;5.928;2022-10-20T02:39:44;15.87;;;6.50;;
53421;SDS011;39319;52.944;5.928;2022-10-20T02:42:10;10.80;;;5.45;;
53421;SDS011;39319;52.944;5.928;2022-10-20T02:44:36;11.48;;;6.13;;
53421;SDS011;39319;52.944;5.928;2022-10-20T02:47:03;13.93;;;6.03;;
53421;SDS011;39319;52.944;5.928;2022-10-20T02:49:29;10.52;;;5.60;;
53421;SDS011;39319;52.944;5.928;2022-10-20T02:51:55;12.70;;;5.70;;
53421;SDS011;39319;52.944;5.928;2022-10-20T02:54:20;10.67;;;5.70;;
53421;SDS011;39319;52.944;5.928;2022-10-20T02:56:47;15.20;;;6.25;;
53421;SDS011;39319;52.944;5.928;2022-10-20T02:59:13;9.27;;;5.72;;
53421;SDS011;39319;52.944;5.928;2022-10-20T03:01:41;11.82;;;6.28;;
53421;SDS011;39319;52.944;5.928;2022-10-20T03:04:09;11.30;;;5.50;;
53421;SDS011;39319;52.944;5.928;2022-10-20T03:06:35;12.00;;;6.03;;
53421;SDS011;39319;52.944;5.928;2022-10-20T03:09:02;13.90;;;6.07;;
53421;SDS011;39319;52.944;5.928;2022-10-20T03:11:27;13.20;;;6.00;;
53421;SDS011;39319;52.944;5.928;2022-10-20T03:13:53;11.75;;;5.90;;
53421;SDS011;39319;52.944;5.928;2022-10-20T03:16:19;12.98;;;6.00;;
53421;SDS011;39319;52.944;5.928;2022-10-20T03:18:45;12.85;;;6.57;;
53421;SDS011;39319;52.944;5.928;2022-10-20T03:21:13;10.10;;;5.85;;
53421;SDS011;39319;52.944;5.928;2022-10-20T03:23:39;13.03;;;6.00;;
53421;SDS011;39319;52.944;5.928;2022-10-20T03:26:05;13.63;;;6.57;;
53421;SDS011;39319;52.944;5.928;2022-10-20T03:28:32;14.00;;;6.65;;
53421;SDS011;39319;52.944;5.928;2022-10-20T03:30:59;11.45;;;6.05;;
53421;SDS011;39319;52.944;5.928;2022-10-20T03:33:24;12.63;;;6.55;;
53421;SDS011;39319;52.944;5.928;2022-10-20T03:35:50;12.00;;;6.23;;
53421;SDS011;39319;52.944;5.928;2022-10-20T03:38:16;13.43;;;6.90;;
53421;SDS011;39319;52.944;5.928;2022-10-20T03:40:42;13.83;;;6.40;;
53421;SDS011;39319;52.944;5.928;2022-10-20T03:43:08;12.68;;;6.43;;
53421;SDS011;39319;52.944;5.928;2022-10-20T03:45:34;11.80;;;6.32;;
53421;SDS011;39319;52.944;5.928;2022-10-20T03:48:00;12.93;;;6.60;;
53421;SDS011;39319;52.944;5.928;2022-10-20T03:50:26;13.73;;;6.70;;
53421;SDS011;39319;52.944;5.928;2022-10-20T03:52:52;12.10;;;5.90;;
53421;SDS011;39319;52.944;5.928;2022-10-20T03:55:21;11.70;;;6.28;;
53421;SDS011;39319;52.944;5.928;2022-10-20T03:57:47;16.13;;;7.13;;
53421;SDS011;39319;52.944;5.928;2022-10-20T04:00:13;12.57;;;6.70;;
53421;SDS011;39319;52.944;5.928;2022-10-20T04:02:40;11.43;;;6.22;;
53421;SDS011;39319;52.944;5.928;2022-10-20T04:05:10;12.27;;;6.65;;
53421;SDS011;39319;52.944;5.928;2022-10-20T04:07:44;11.95;;;6.63;;
53421;SDS011;39319;52.944;5.928;2022-10-20T04:10:13;13.68;;;7.10;;
53421;SDS011;39319;52.944;5.928;2022-10-20T04:12:40;11.07;;;6.57;;
53421;SDS011;39319;52.944;5.928;2022-10-20T04:15:06;14.05;;;7.38;;
53421;SDS011;39319;52.944;5.928;2022-10-20T04:17:32;13.73;;;6.95;;
53421;SDS011;39319;52.944;5.928;2022-10-20T04:19:58;11.00;;;6.93;;
53421;SDS011;39319;52.944;5.928;2022-10-20T04:22:24;12.30;;;7.45;;
53421;SDS011;39319;52.944;5.928;2022-10-20T04:24:50;12.48;;;6.97;;
53421;SDS011;39319;52.944;5.928;2022-10-20T04:27:16;10.38;;;7.28;;
53421;SDS011;39319;52.944;5.928;2022-10-20T04:29:41;11.43;;;7.00;;
53421;SDS011;39319;52.944;5.928;2022-10-20T04:32:07;14.80;;;7.50;;
53421;SDS011;39319;52.944;5.928;2022-10-20T04:34:33;12.93;;;6.93;;
53421;SDS011;39319;52.944;5.928;2022-10-20T04:37:00;12.82;;;7.93;;
53421;SDS011;39319;52.944;5.928;2022-10-20T04:39:30;11.82;;;6.90;;
53421;SDS011;39319;52.944;5.928;2022-10-20T04:41:56;13.25;;;7.70;;
53421;SDS011;39319;52.944;5.928;2022-10-20T04:44:22;12.48;;;7.47;;
53421;SDS011;39319;52.944;5.928;2022-10-20T04:46:48;12.93;;;8.00;;
53421;SDS011;39319;52.944;5.928;2022-10-20T04:49:14;14.85;;;7.70;;
53421;SDS011;39319;52.944;5.928;2022-10-20T04:51:40;13.83;;;7.93;;
53421;SDS011;39319;52.944;5.928;2022-10-20T04:54:05;13.82;;;7.78;;
53421;SDS011;39319;52.944;5.928;2022-10-20T04:56:31;13.55;;;8.13;;
53421;SDS011;39319;52.944;5.928;2022-10-20T04:58:57;12.98;;;9.00;;
53421;SDS011;39319;52.944;5.928;2022-10-20T05:01:25;16.15;;;8.70;;
53421;SDS011;39319;52.944;5.928;2022-10-20T05:03:52;13.73;;;8.80;;
53421;SDS011;39319;52.944;5.928;2022-10-20T05:08:46;14.40;;;9.00;;
53421;SDS011;39319;52.944;5.928;2022-10-20T05:11:14;15.07;;;9.43;;
53421;SDS011;39319;52.944;5.928;2022-10-20T05:13:43;14.70;;;8.90;;
53421;SDS011;39319;52.944;5.928;2022-10-20T05:16:09;13.73;;;9.65;;
53421;SDS011;39319;52.944;5.928;2022-10-20T05:18:37;14.88;;;9.90;;
53421;SDS011;39319;52.944;5.928;2022-10-20T05:21:04;14.05;;;9.75;;
53421;SDS011;39319;52.944;5.928;2022-10-20T05:23:32;13.60;;;9.55;;
53421;SDS011;39319;52.944;5.928;2022-10-20T05:26:00;14.18;;;10.60;;
53421;SDS011;39319;52.944;5.928;2022-10-20T05:28:27;15.13;;;10.30;;
53421;SDS011;39319;52.944;5.928;2022-10-20T05:30:53;15.38;;;10.13;;
53421;SDS011;39319;52.944;5.928;2022-10-20T05:33:19;15.20;;;10.60;;
53421;SDS011;39319;52.944;5.928;2022-10-20T05:35:45;13.77;;;10.67;;
53421;SDS011;39319;52.944;5.928;2022-10-20T05:38:13;16.27;;;10.93;;
53421;SDS011;39319;52.944;5.928;2022-10-20T05:40:39;16.58;;;11.20;;
53421;SDS011;39319;52.944;5.928;2022-10-20T05:43:05;17.77;;;11.57;;
53421;SDS011;39319;52.944;5.928;2022-10-20T05:45:30;16.90;;;11.27;;
53421;SDS011;39319;52.944;5.928;2022-10-20T05:47:56;16.13;;;11.20;;
53421;SDS011;39319;52.944;5.928;2022-10-20T05:50:22;16.35;;;11.40;;
53421;SDS011;39319;52.944;5.928;2022-10-20T05:52:48;14.33;;;11.53;;
53421;SDS011;39319;52.944;5.928;2022-10-20T05:55:13;16.57;;;11.43;;
53421;SDS011;39319;52.944;5.928;2022-10-20T05:57:39;16.60;;;11.98;;
53421;SDS011;39319;52.944;5.928;2022-10-20T06:00:06;17.73;;;12.77;;
53421;SDS011;39319;52.944;5.928;2022-10-20T06:02:33;15.17;;;12.03;;
53421;SDS011;39319;52.944;5.928;2022-10-20T06:04:58;14.70;;;12.05;;
53421;SDS011;39319;52.944;5.928;2022-10-20T06:07:24;17.23;;;12.73;;
53421;SDS011;39319;52.944;5.928;2022-10-20T06:09:50;15.43;;;12.80;;
53421;SDS011;39319;52.944;5.928;2022-10-20T06:12:16;16.38;;;12.80;;
53421;SDS011;39319;52.944;5.928;2022-10-20T06:14:42;16.63;;;12.45;;
53421;SDS011;39319;52.944;5.928;2022-10-20T06:17:08;17.90;;;12.50;;
53421;SDS011;39319;52.944;5.928;2022-10-20T06:19:34;18.67;;;13.55;;
53421;SDS011;39319;52.944;5.928;2022-10-20T06:21:59;15.55;;;13.63;;
53421;SDS011;39319;52.944;5.928;2022-10-20T06:24:25;17.02;;;12.82;;
53421;SDS011;39319;52.944;5.928;2022-10-20T06:26:52;19.70;;;13.50;;
53421;SDS011;39319;52.944;5.928;2022-10-20T06:29:18;16.75;;;13.43;;
53421;SDS011;39319;52.944;5.928;2022-10-20T06:31:48;17.65;;;13.88;;
53421;SDS011;39319;52.944;5.928;2022-10-20T06:34:16;16.63;;;13.52;;
53421;SDS011;39319;52.944;5.928;2022-10-20T06:36:44;16.88;;;14.05;;
53421;SDS011;39319;52.944;5.928;2022-10-20T06:39:12;16.92;;;13.95;;
53421;SDS011;39319;52.944;5.928;2022-10-20T06:41:40;18.92;;;13.25;;
53421;SDS011;39319;52.944;5.928;2022-10-20T06:44:07;19.08;;;14.38;;
53421;SDS011;39319;52.944;5.928;2022-10-20T06:46:33;16.83;;;13.73;;
53421;SDS011;39319;52.944;5.928;2022-10-20T06:49:01;19.70;;;14.47;;
53421;SDS011;39319;52.944;5.928;2022-10-20T06:51:28;20.55;;;14.30;;
53421;SDS011;39319;52.944;5.928;2022-10-20T06:53:54;18.00;;;14.35;;
53421;SDS011;39319;52.944;5.928;2022-10-20T06:56:20;17.55;;;14.27;;
53421;SDS011;39319;52.944;5.928;2022-10-20T06:58:49;20.35;;;14.50;;
53421;SDS011;39319;52.944;5.928;2022-10-20T07:01:17;22.83;;;14.23;;
53421;SDS011;39319;52.944;5.928;2022-10-20T07:03:49;16.48;;;13.98;;
53421;SDS011;39319;52.944;5.928;2022-10-20T07:06:27;18.17;;;13.88;;
53421;SDS011;39319;52.944;5.928;2022-10-20T07:08:54;18.27;;;14.38;;
53421;SDS011;39319;52.944;5.928;2022-10-20T07:11:22;19.23;;;14.30;;
53421;SDS011;39319;52.944;5.928;2022-10-20T07:13:49;19.23;;;13.95;;
53421;SDS011;39319;52.944;5.928;2022-10-20T07:16:18;19.00;;;14.38;;
53421;SDS011;39319;52.944;5.928;2022-10-20T07:18:45;18.77;;;14.30;;
53421;SDS011;39319;52.944;5.928;2022-10-20T07:21:12;19.35;;;14.73;;
53421;SDS011;39319;52.944;5.928;2022-10-20T07:23:40;18.95;;;14.68;;
53421;SDS011;39319;52.944;5.928;2022-10-20T07:26:07;17.57;;;14.67;;
53421;SDS011;39319;52.944;5.928;2022-10-20T07:28:36;19.15;;;14.30;;
53421;SDS011;39319;52.944;5.928;2022-10-20T07:31:04;17.40;;;14.25;;
53421;SDS011;39319;52.944;5.928;2022-10-20T07:33:31;19.08;;;15.50;;
53421;SDS011;39319;52.944;5.928;2022-10-20T07:36:21;17.07;;;14.83;;
53421;SDS011;39319;52.944;5.928;2022-10-20T07:38:49;21.70;;;14.48;;
53421;SDS011;39319;52.944;5.928;2022-10-20T07:41:17;17.15;;;14.77;;
53421;SDS011;39319;52.944;5.928;2022-10-20T07:43:42;17.95;;;14.80;;
53421;SDS011;39319;52.944;5.928;2022-10-20T07:46:08;20.90;;;14.67;;
53421;SDS011;39319;52.944;5.928;2022-10-20T07:48:35;18.23;;;15.15;;
53421;SDS011;39319;52.944;5.928;2022-10-20T07:53:49;18.42;;;14.70;;
53421;SDS011;39319;52.944;5.928;2022-10-20T07:56:19;18.43;;;14.83;;
53421;SDS011;39319;52.944;5.928;2022-10-20T07:58:45;20.30;;;14.70;;
53421;SDS011;39319;52.944;5.928;2022-10-20T08:01:12;16.85;;;14.38;;
53421;SDS011;39319;52.944;5.928;2022-10-20T08:03:39;20.63;;;14.85;;
53421;SDS011;39319;52.944;5.928;2022-10-20T08:06:05;19.80;;;15.52;;
53421;SDS011;39319;52.944;5.928;2022-10-20T08:08:31;23.47;;;15.50;;
53421;SDS011;39319;52.944;5.928;2022-10-20T08:10:57;20.73;;;14.75;;
53421;SDS011;39319;52.944;5.928;2022-10-20T08:13:26;16.53;;;14.80;;
53421;SDS011;39319;52.944;5.928;2022-10-20T08:15:53;17.45;;;14.60;;
53421;SDS011;39319;52.944;5.928;2022-10-20T08:18:19;20.27;;;14.95;;
53421;SDS011;39319;52.944;5.928;2022-10-20T08:20:44;20.67;;;14.90;;
53421;SDS011;39319;52.944;5.928;2022-10-20T08:23:13;19.35;;;15.10;;
53421;SDS011;39319;52.944;5.928;2022-10-20T08:25:40;16.70;;;14.23;;
53421;SDS011;39319;52.944;5.928;2022-10-20T08:28:06;20.70;;;14.88;;
53421;SDS011;39319;52.944;5.928;2022-10-20T08:30:32;16.85;;;14.55;;
53421;SDS011;39319;52.944;5.928;2022-10-20T08:32:59;17.47;;;15.03;;
53421;SDS011;39319;52.944;5.928;2022-10-20T08:35:25;18.65;;;14.68;;
53421;SDS011;39319;52.944;5.928;2022-10-20T08:37:51;22.13;;;15.73;;
53421;SDS011;39319;52.944;5.928;2022-10-20T08:40:25;20.08;;;15.38;;
53421;SDS011;39319;52.944;5.928;2022-10-20T08:42:53;20.42;;;14.23;;
53421;SDS011;39319;52.944;5.928;2022-10-20T08:45:21;19.00;;;14.02;;
53421;SDS011;39319;52.944;5.928;2022-10-20T08:47:49;18.35;;;14.07;;
53421;SDS011;39319;52.944;5.928;2022-10-20T08:50:18;17.77;;;14.27;;
53421;SDS011;39319;52.944;5.928;2022-10-20T08:52:46;18.27;;;14.73;;
53421;SDS011;39319;52.944;5.928;2022-10-20T08:55:21;21.73;;;14.57;;
53421;SDS011;39319;52.944;5.928;2022-10-20T08:58:03;16.55;;;13.52;;
53421;SDS011;39319;52.944;5.928;2022-10-20T09:00:31;19.27;;;14.88;;
53421;SDS011;39319;52.944;5.928;2022-10-20T09:03:14;17.95;;;14.90;;
53421;SDS011;39319;52.944;5.928;2022-10-20T09:05:41;17.55;;;14.75;;
53421;SDS011;39319;52.944;5.928;2022-10-20T09:08:10;18.08;;;15.32;;
53421;SDS011;39319;52.944;5.928;2022-10-20T09:10:40;17.65;;;14.20;;
53421;SDS011;39319;52.944;5.928;2022-10-20T09:13:24;16.05;;;12.60;;
53421;SDS011;39319;52.944;5.928;2022-10-20T09:15:55;18.35;;;13.88;;
53421;SDS011;39319;52.944;5.928;2022-10-20T09:18:35;18.33;;;14.20;;
53421;SDS011;39319;52.944;5.928;2022-10-20T09:21:07;18.92;;;14.10;;
53421;SDS011;39319;52.944;5.928;2022-10-20T09:23:38;15.90;;;13.70;;
53421;SDS011;39319;52.944;5.928;2022-10-20T09:28:41;19.45;;;14.15;;
53421;SDS011;39319;52.944;5.928;2022-10-20T09:31:22;16.50;;;13.90;;
53421;SDS011;39319;52.944;5.928;2022-10-20T09:33:56;18.40;;;13.50;;
53421;SDS011;39319;52.944;5.928;2022-10-20T09:36:22;16.57;;;14.00;;
53421;SDS011;39319;52.944;5.928;2022-10-20T09:38:58;16.48;;;13.20;;
53421;SDS011;39319;52.944;5.928;2022-10-20T09:41:27;16.52;;;13.57;;
53421;SDS011;39319;52.944;5.928;2022-10-20T09:44:02;20.27;;;13.30;;
53421;SDS011;39319;52.944;5.928;2022-10-20T09:46:41;16.77;;;13.23;;
53421;SDS011;39319;52.944;5.928;2022-10-20T09:49:22;15.18;;;12.77;;
53421;SDS011;39319;52.944;5.928;2022-10-20T09:51:56;17.90;;;13.27;;
53421;SDS011;39319;52.944;5.928;2022-10-20T09:54:24;17.07;;;12.63;;
53421;SDS011;39319;52.944;5.928;2022-10-20T09:56:50;14.57;;;11.95;;
53421;SDS011;39319;52.944;5.928;2022-10-20T09:59:18;15.75;;;12.38;;
53421;SDS011;39319;52.944;5.928;2022-10-20T10:01:58;15.02;;;12.32;;
53421;SDS011;39319;52.944;5.928;2022-10-20T10:06:55;16.00;;;11.85;;
53421;SDS011;39319;52.944;5.928;2022-10-20T10:09:29;18.17;;;13.20;;
53421;SDS011;39319;52.944;5.928;2022-10-20T10:12:19;15.85;;;12.07;;
53421;SDS011;39319;52.944;5.928;2022-10-20T10:14:58;16.23;;;12.38;;
53421;SDS011;39319;52.944;5.928;2022-10-20T10:17:29;17.13;;;12.52;;
53421;SDS011;39319;52.944;5.928;2022-10-20T10:19:59;15.35;;;11.88;;
53421;SDS011;39319;52.944;5.928;2022-10-20T10:22:25;15.30;;;12.43;;
53421;SDS011;39319;52.944;5.928;2022-10-20T10:24:53;16.17;;;11.85;;
53421;SDS011;39319;52.944;5.928;2022-10-20T10:27:21;15.65;;;11.75;;
53421;SDS011;39319;52.944;5.928;2022-10-20T10:29:47;15.68;;;11.68;;
53421;SDS011;39319;52.944;5.928;2022-10-20T10:37:44;16.20;;;11.25;;
53421;SDS011;39319;52.944;5.928;2022-10-20T10:40:14;15.05;;;10.75;;
53421;SDS011;39319;52.944;5.928;2022-10-20T10:45:35;15.40;;;10.45;;
53421;SDS011;39319;52.944;5.928;2022-10-20T10:48:12;16.08;;;10.90;;
53421;SDS011;39319;52.944;5.928;2022-10-20T10:51:06;15.43;;;11.07;;
53421;SDS011;39319;52.944;5.928;2022-10-20T10:53:43;15.18;;;10.90;;
53421;SDS011;39319;52.944;5.928;2022-10-20T10:58:50;15.40;;;11.40;;
53421;SDS011;39319;52.944;5.928;2022-10-20T11:07:08;15.45;;;11.13;;
53421;SDS011;39319;52.944;5.928;2022-10-20T11:15:16;16.92;;;11.98;;
53421;SDS011;39319;52.944;5.928;2022-10-20T11:21:41;15.98;;;10.95;;
53421;SDS011;39319;52.944;5.928;2022-10-20T11:24:07;17.42;;;12.45;;
53421;SDS011;39319;52.944;5.928;2022-10-20T11:27:10;14.32;;;9.57;;
53421;SDS011;39319;52.944;5.928;2022-10-20T11:29:42;14.95;;;9.85;;
53421;SDS011;39319;52.944;5.928;2022-10-20T11:34:52;22.50;;;13.02;;
53421;SDS011;39319;52.944;5.928;2022-10-20T11:40:22;19.35;;;12.50;;
53421;SDS011;39319;52.944;5.928;2022-10-20T11:45:52;16.17;;;12.38;;
53421;SDS011;39319;52.944;5.928;2022-10-20T11:48:29;18.67;;;13.02;;
53421;SDS011;39319;52.944;5.928;2022-10-20T12:08:31;18.42;;;14.43;;
53421;SDS011;39319;52.944;5.928;2022-10-20T12:10:50;21.33;;;14.32;;
53421;SDS011;39319;52.944;5.928;2022-10-20T12:19:24;18.65;;;15.43;;
53421;SDS011;39319;52.944;5.928;2022-10-20T12:21:59;22.20;;;15.85;;
53421;SDS011;39319;52.944;5.928;2022-10-20T12:34:49;19.45;;;16.27;;
53421;SDS011;39319;52.944;5.928;2022-10-20T12:37:17;20.63;;;17.35;;
53421;SDS011;39319;52.944;5.928;2022-10-20T12:39:56;22.55;;;17.52;;
53421;SDS011;39319;52.944;5.928;2022-10-20T12:42:31;20.07;;;17.03;;
53421;SDS011;39319;52.944;5.928;2022-10-20T12:45:02;21.95;;;17.75;;
53421;SDS011;39319;52.944;5.928;2022-10-20T12:47:31;22.58;;;18.42;;
53421;SDS011;39319;52.944;5.928;2022-10-20T12:50:00;22.25;;;17.98;;
53421;SDS011;39319;52.944;5.928;2022-10-20T12:52:31;22.08;;;18.65;;
53421;SDS011;39319;52.944;5.928;2022-10-20T12:55:19;22.77;;;19.13;;
53421;SDS011;39319;52.944;5.928;2022-10-20T12:57:50;24.25;;;19.20;;
53421;SDS011;39319;52.944;5.928;2022-10-20T13:05:59;22.57;;;19.17;;
53421;SDS011;39319;52.944;5.928;2022-10-20T13:08:29;24.13;;;19.92;;
53421;SDS011;39319;52.944;5.928;2022-10-20T13:11:32;25.10;;;20.30;;
53421;SDS011;39319;52.944;5.928;2022-10-20T13:16:37;24.92;;;21.13;;
53421;SDS011;39319;52.944;5.928;2022-10-20T13:19:11;25.20;;;20.30;;
53421;SDS011;39319;52.944;5.928;2022-10-20T13:21:43;27.30;;;21.98;;
53421;SDS011;39319;52.944;5.928;2022-10-20T13:26:48;27.10;;;21.63;;
53421;SDS011;39319;52.944;5.928;2022-10-20T13:34:51;29.63;;;22.23;;
53421;SDS011;39319;52.944;5.928;2022-10-20T13:37:28;27.73;;;21.95;;
53421;SDS011;39319;52.944;5.928;2022-10-20T13:51:28;28.77;;;23.70;;
53421;SDS011;39319;52.944;5.928;2022-10-20T13:53:58;31.52;;;24.05;;
53421;SDS011;39319;52.944;5.928;2022-10-20T13:56:28;30.00;;;23.42;;
53421;SDS011;39319;52.944;5.928;2022-10-20T13:59:17;31.25;;;24.02;;
53421;SDS011;39319;52.944;5.928;2022-10-20T14:01:55;31.80;;;23.27;;
53421;SDS011;39319;52.944;5.928;2022-10-20T14:07:03;29.70;;;24.90;;
53421;SDS011;39319;52.944;5.928;2022-10-20T14:09:40;31.27;;;25.10;;
53421;SDS011;39319;52.944;5.928;2022-10-20T14:12:21;30.90;;;25.92;;
53421;SDS011;39319;52.944;5.928;2022-10-20T14:14:50;31.13;;;26.13;;
53421;SDS011;39319;52.944;5.928;2022-10-20T14:17:22;32.83;;;25.63;;
53421;SDS011;39319;52.944;5.928;2022-10-20T14:19:49;34.43;;;26.17;;
53421;SDS011;39319;52.944;5.928;2022-10-20T14:24:47;35.78;;;26.73;;
53421;SDS011;39319;52.944;5.928;2022-10-20T14:29:45;33.70;;;26.55;;
53421;SDS011;39319;52.944;5.928;2022-10-20T14:32:15;33.00;;;26.38;;
53421;SDS011;39319;52.944;5.928;2022-10-20T14:34:59;32.37;;;26.30;;
53421;SDS011;39319;52.944;5.928;2022-10-20T14:40:47;36.03;;;27.27;;
53421;SDS011;39319;52.944;5.928;2022-10-20T14:43:18;32.50;;;25.92;;
53421;SDS011;39319;52.944;5.928;2022-10-20T14:45:58;33.80;;;26.50;;
53421;SDS011;39319;52.944;5.928;2022-10-20T14:54:26;32.13;;;26.20;;
53421;SDS011;39319;52.944;5.928;2022-10-20T14:56:57;33.92;;;26.38;;
53421;SDS011;39319;52.944;5.928;2022-10-20T14:59:27;32.17;;;25.92;;
53421;SDS011;39319;52.944;5.928;2022-10-20T15:04:41;32.08;;;27.33;;
53421;SDS011;39319;52.944;5.928;2022-10-20T15:12:19;37.97;;;29.25;;
53421;SDS011;39319;52.944;5.928;2022-10-20T15:20:40;42.60;;;29.75;;
53421;SDS011;39319;52.944;5.928;2022-10-20T15:23:08;36.33;;;28.65;;
53421;SDS011;39319;52.944;5.928;2022-10-20T15:25:39;40.58;;;30.88;;
53421;SDS011;39319;52.944;5.928;2022-10-20T15:31:07;45.80;;;32.03;;
53421;SDS011;39319;52.944;5.928;2022-10-20T15:33:45;39.88;;;31.00;;
53421;SDS011;39319;52.944;5.928;2022-10-20T15:36:12;36.35;;;29.27;;
53421;SDS011;39319;52.944;5.928;2022-10-20T15:38:46;39.73;;;30.20;;
53421;SDS011;39319;52.944;5.928;2022-10-20T15:41:13;40.55;;;30.65;;
53421;SDS011;39319;52.944;5.928;2022-10-20T15:43:41;41.65;;;32.13;;
53421;SDS011;39319;52.944;5.928;2022-10-20T15:46:08;39.93;;;30.57;;
53421;SDS011;39319;52.944;5.928;2022-10-20T15:48:37;38.67;;;31.42;;
53421;SDS011;39319;52.944;5.928;2022-10-20T15:51:03;39.07;;;30.37;;
53421;SDS011;39319;52.944;5.928;2022-10-20T15:53:31;40.78;;;31.55;;
53421;SDS011;39319;52.944;5.928;2022-10-20T15:55:56;45.53;;;32.08;;
53421;SDS011;39319;52.944;5.928;2022-10-20T15:58:22;40.88;;;31.88;;
53421;SDS011;39319;52.944;5.928;2022-10-20T16:00:48;43.13;;;32.72;;
53421;SDS011;39319;52.944;5.928;2022-10-20T16:03:17;37.58;;;30.52;;
53421;SDS011;39319;52.944;5.928;2022-10-20T16:05:43;43.00;;;32.17;;
53421;SDS011;39319;52.944;5.928;2022-10-20T16:08:10;41.10;;;32.00;;
53421;SDS011;39319;52.944;5.928;2022-10-20T16:10:36;43.35;;;32.70;;
53421;SDS011;39319;52.944;5.928;2022-10-20T16:13:03;41.17;;;32.17;;
53421;SDS011;39319;52.944;5.928;2022-10-20T16:15:29;41.80;;;33.10;;
53421;SDS011;39319;52.944;5.928;2022-10-20T16:17:55;44.67;;;33.63;;
53421;SDS011;39319;52.944;5.928;2022-10-20T16:20:21;43.05;;;31.77;;
53421;SDS011;39319;52.944;5.928;2022-10-20T16:22:47;44.30;;;33.97;;
53421;SDS011;39319;52.944;5.928;2022-10-20T16:25:13;50.40;;;35.53;;
53421;SDS011;39319;52.944;5.928;2022-10-20T16:27:39;44.13;;;34.55;;
53421;SDS011;39319;52.944;5.928;2022-10-20T16:30:06;44.65;;;34.97;;
53421;SDS011;39319;52.944;5.928;2022-10-20T16:32:32;51.95;;;36.50;;
53421;SDS011;39319;52.944;5.928;2022-10-20T16:34:59;47.70;;;35.33;;
53421;SDS011;39319;52.944;5.928;2022-10-20T16:37:25;53.07;;;36.40;;
53421;SDS011;39319;52.944;5.928;2022-10-20T16:39:51;53.78;;;36.20;;
53421;SDS011;39319;52.944;5.928;2022-10-20T16:42:17;48.63;;;36.93;;
53421;SDS011;39319;52.944;5.928;2022-10-20T16:44:43;51.22;;;36.33;;
53421;SDS011;39319;52.944;5.928;2022-10-20T16:47:09;57.25;;;39.72;;
53421;SDS011;39319;52.944;5.928;2022-10-20T16:49:36;58.72;;;40.47;;
53421;SDS011;39319;52.944;5.928;2022-10-20T16:52:02;63.28;;;41.17;;
53421;SDS011;39319;52.944;5.928;2022-10-20T16:54:27;57.03;;;41.15;;
53421;SDS011;39319;52.944;5.928;2022-10-20T16:56:53;59.07;;;40.40;;
53421;SDS011;39319;52.944;5.928;2022-10-20T16:59:19;56.25;;;40.95;;
53421;SDS011;39319;52.944;5.928;2022-10-20T17:01:46;57.88;;;41.60;;
53421;SDS011;39319;52.944;5.928;2022-10-20T17:04:11;60.28;;;40.53;;
53421;SDS011;39319;52.944;5.928;2022-10-20T17:06:37;52.58;;;39.75;;
53421;SDS011;39319;52.944;5.928;2022-10-20T17:09:03;59.20;;;43.30;;
53421;SDS011;39319;52.944;5.928;2022-10-20T17:11:29;58.35;;;42.78;;
53421;SDS011;39319;52.944;5.928;2022-10-20T17:13:56;69.40;;;46.00;;
53421;SDS011;39319;52.944;5.928;2022-10-20T17:16:23;66.28;;;44.58;;